Terminal Aerodrome Forecast
Issued by NWS Burlington, VT

Home | Current Version | Previous Version | Text Only | Print | Product List | Glossary On
Versions: 1 2 3 4 5 6 7 8 9 10 11 12 13 14 15 16 17 18 19 20 21
736
FTUS41 KBTV 241720
TAFBTV
TAF
KBTV 241720Z 2418/2518 35008KT P6SM SCT250
     FM250600 00000KT P6SM BKN110
     FM251000 VRB03KT P6SM SCT090
     FM251300 18007KT P6SM FEW150=

USA.gov is the U.S. government's official web portal to all federal, state and local government web resources and services.